createdAt,value
2023-02-14T00:00:28.210Z,64.30
2023-02-14T00:02:57.773Z,64.40
2023-02-14T00:05:27.487Z,64.60
2023-02-14T00:11:46.813Z,64.70
2023-02-14T00:14:32.942Z,64.50
2023-02-14T00:17:02.919Z,64.60
2023-02-14T00:19:34.655Z,64.60
2023-02-14T00:22:02.313Z,64.70
2023-02-14T00:24:29.632Z,64.70
2023-02-14T00:26:59.144Z,64.70
2023-02-14T00:29:31.655Z,64.40
2023-02-14T00:32:02.629Z,64.30
2023-02-14T00:34:30.022Z,64.40
2023-02-14T00:36:57.339Z,64.40
2023-02-14T00:39:24.600Z,64.30
2023-02-14T00:41:52.129Z,64.20
2023-02-14T00:44:19.459Z,64.10
2023-02-14T00:46:46.769Z,64.20
2023-02-14T00:49:14.114Z,64.10
2023-02-14T00:51:41.510Z,64.00
2023-02-14T00:54:08.825Z,64.00
2023-02-14T00:56:36.312Z,64.10
2023-02-14T00:59:03.610Z,64.00
2023-02-14T01:01:38.932Z,64.00
2023-02-14T01:04:09.300Z,63.90
2023-02-14T01:06:36.781Z,63.90
2023-02-14T01:09:04.666Z,63.90
2023-02-14T01:11:31.916Z,63.90
2023-02-14T01:13:59.915Z,63.80
2023-02-14T01:20:15.565Z,63.70
2023-02-14T01:22:42.842Z,63.90
2023-02-14T01:25:17.661Z,63.90
2023-02-14T01:27:47.029Z,63.80
2023-02-14T01:30:14.935Z,63.60
2023-02-14T01:32:44.467Z,63.50
2023-02-14T01:35:11.774Z,63.60
2023-02-14T01:37:41.558Z,63.50
2023-02-14T01:40:12.270Z,63.50
2023-02-14T01:42:39.890Z,63.60
2023-02-14T01:45:29.906Z,63.70
2023-02-14T01:47:59.912Z,63.70
2023-02-14T01:50:35.805Z,63.70
2023-02-14T01:53:21.402Z,63.90
2023-02-14T01:55:57.068Z,63.80
2023-02-14T01:58:29.650Z,63.90
2023-02-14T02:01:00.217Z,64.00
2023-02-14T02:03:54.436Z,64.00
2023-02-14T02:06:31.796Z,63.80
2023-02-14T02:09:14.138Z,63.90
2023-02-14T02:11:42.805Z,63.60
2023-02-14T02:18:02.198Z,63.40
2023-02-14T02:20:48.310Z,63.50
2023-02-14T02:23:53.422Z,63.40
2023-02-14T02:26:51.871Z,63.40
2023-02-14T02:29:24.994Z,63.20
2023-02-14T02:32:07.776Z,63.20
2023-02-14T02:35:14.154Z,63.10
2023-02-14T02:38:20.608Z,63.20
2023-02-14T02:41:32.120Z,63.10
2023-02-14T02:44:20.782Z,63.10
2023-02-14T02:47:07.401Z,63.20
2023-02-14T02:50:00.942Z,63.10
2023-02-14T02:53:03.615Z,63.20
2023-02-14T02:56:20.216Z,63.20
2023-02-14T02:59:04.922Z,63.30
2023-02-14T03:01:39.671Z,63.20
2023-02-14T03:04:29.515Z,63.30
2023-02-14T03:07:00.096Z,63.30
2023-02-14T03:09:27.291Z,63.40
2023-02-14T03:12:28.142Z,63.50
2023-02-14T03:15:00.465Z,63.50
2023-02-14T03:17:52.745Z,63.50
2023-02-14T03:20:41.623Z,63.50
2023-02-14T03:23:23.405Z,63.60
2023-02-14T03:25:56.294Z,63.50
2023-02-14T03:32:41.519Z,63.90
2023-02-14T03:35:29.457Z,64.60
2023-02-14T03:38:21.782Z,64.10
2023-02-14T03:41:00.486Z,64.20
2023-02-14T03:43:34.374Z,64.20
2023-02-14T03:46:16.652Z,64.30
2023-02-14T03:48:48.356Z,64.50
2023-02-14T03:51:18.543Z,64.60
2023-02-14T03:53:53.838Z,64.60
2023-02-14T03:56:34.649Z,64.70
2023-02-14T03:59:13.606Z,64.70
2023-02-14T04:01:55.585Z,64.80
2023-02-14T04:04:27.055Z,65.00
2023-02-14T04:06:54.913Z,65.20
2023-02-14T04:09:22.259Z,65.40
2023-02-14T04:11:50.549Z,65.40
2023-02-14T04:14:22.743Z,65.60
2023-02-14T04:17:08.439Z,65.90
2023-02-14T04:19:35.892Z,65.90
2023-02-14T04:22:03.179Z,66.00
2023-02-14T04:24:35.919Z,66.10
2023-02-14T04:27:12.364Z,66.10
2023-02-14T04:29:44.048Z,66.20
2023-02-14T04:32:17.788Z,66.20
2023-02-14T04:34:45.602Z,66.30
2023-02-14T04:37:21.337Z,66.30
2023-02-14T04:39:51.315Z,66.40
2023-02-14T04:42:18.600Z,66.30
2023-02-14T04:44:45.886Z,66.50
2023-02-14T04:47:14.354Z,66.40
2023-02-14T04:49:41.709Z,66.40
2023-02-14T04:52:09.486Z,66.50
2023-02-14T04:54:36.777Z,66.50
2023-02-14T04:57:04.304Z,66.60
2023-02-14T04:59:34.154Z,66.60
2023-02-14T05:02:01.530Z,66.60
2023-02-14T05:04:28.826Z,66.70
2023-02-14T05:06:56.077Z,66.80
2023-02-14T05:09:23.435Z,66.90
2023-02-14T05:11:50.761Z,66.90
2023-02-14T05:14:18.031Z,67.00
2023-02-14T05:16:47.834Z,67.10
2023-02-14T05:19:15.125Z,67.00
2023-02-14T05:21:44.740Z,66.90
2023-02-14T05:24:12.075Z,66.80
2023-02-14T05:26:40.479Z,66.90
2023-02-14T05:29:07.887Z,66.90
2023-02-14T05:31:37.908Z,66.80
2023-02-14T05:34:07.926Z,66.70
2023-02-14T05:36:35.246Z,66.70
2023-02-14T05:39:02.543Z,66.70
2023-02-14T05:41:30.085Z,66.70
2023-02-14T05:43:59.630Z,66.60
2023-02-14T05:46:26.975Z,66.50
2023-02-14T05:48:54.357Z,66.40
2023-02-14T05:51:24.138Z,66.50
2023-02-14T05:53:51.482Z,66.60
2023-02-14T05:56:18.795Z,66.60
2023-02-14T05:58:46.106Z,66.70
2023-02-14T06:01:13.537Z,66.70
2023-02-14T06:03:40.834Z,66.70
2023-02-14T06:06:08.224Z,66.70
2023-02-14T06:08:38.017Z,66.70
2023-02-14T06:11:07.752Z,66.90
2023-02-14T06:13:41.485Z,66.90
2023-02-14T06:16:08.909Z,67.00
2023-02-14T06:18:36.374Z,67.00
2023-02-14T06:21:03.887Z,66.90
2023-02-14T06:23:35.839Z,66.80
2023-02-14T06:26:03.778Z,66.90
2023-02-14T06:28:31.104Z,66.90
2023-02-14T06:30:58.834Z,67.10
2023-02-14T06:33:29.017Z,67.10
2023-02-14T06:35:59.154Z,67.20
2023-02-14T06:38:28.576Z,67.30
2023-02-14T06:41:02.469Z,67.30
2023-02-14T06:43:29.977Z,67.40
2023-02-14T06:45:57.325Z,67.40
2023-02-14T06:48:24.641Z,67.40
2023-02-14T06:50:54.407Z,67.30
2023-02-14T06:53:22.018Z,67.20
2023-02-14T06:55:54.084Z,67.20
2023-02-14T06:58:21.489Z,67.20
2023-02-14T07:00:48.794Z,67.30
2023-02-14T07:03:16.381Z,67.30
2023-02-14T07:05:45.225Z,67.40
2023-02-14T07:08:16.069Z,67.40
2023-02-14T07:10:45.761Z,67.50
2023-02-14T07:13:13.403Z,67.50
2023-02-14T07:15:42.963Z,67.60
2023-02-14T07:18:12.818Z,67.60
2023-02-14T07:20:42.605Z,67.60
2023-02-14T07:23:12.272Z,67.50
2023-02-14T07:25:40.734Z,67.50
2023-02-14T07:28:10.441Z,67.60
2023-02-14T07:30:40.368Z,67.50
2023-02-14T07:33:07.748Z,67.60
2023-02-14T07:35:35.592Z,67.60
2023-02-14T07:38:02.840Z,67.60
2023-02-14T07:40:30.187Z,67.70
2023-02-14T07:42:59.061Z,67.70
2023-02-14T07:45:27.151Z,67.80
2023-02-14T07:48:02.017Z,67.90
2023-02-14T07:50:29.466Z,68.00
2023-02-14T07:52:57.232Z,68.10
2023-02-14T07:55:27.490Z,68.20
2023-02-14T07:57:57.149Z,68.30
2023-02-14T08:00:24.512Z,68.30
2023-02-14T08:02:51.791Z,68.30
2023-02-14T08:05:21.832Z,68.30
2023-02-14T08:07:50.507Z,68.40
2023-02-14T08:10:17.914Z,68.50
2023-02-14T08:13:11.522Z,68.50
2023-02-14T08:15:57.584Z,68.50
2023-02-14T08:18:29.266Z,68.60
2023-02-14T08:20:56.985Z,69.30
2023-02-14T08:23:24.654Z,68.50
2023-02-14T08:25:55.585Z,68.50
2023-02-14T08:28:23.515Z,68.50
2023-02-14T08:30:53.902Z,68.50
2023-02-14T08:33:24.285Z,68.60
2023-02-14T08:35:52.290Z,68.60
2023-02-14T08:38:19.854Z,68.60
2023-02-14T08:40:47.427Z,68.60
2023-02-14T08:43:15.076Z,68.60
2023-02-14T08:45:42.543Z,68.70
2023-02-14T08:48:11.766Z,68.60
2023-02-14T08:50:40.057Z,68.50
2023-02-14T08:53:09.452Z,68.50
2023-02-14T08:55:36.956Z,68.40
2023-02-14T08:58:04.939Z,68.50
2023-02-14T09:00:33.476Z,68.40
2023-02-14T09:03:05.320Z,68.30
2023-02-14T09:05:33.569Z,68.50
2023-02-14T09:08:04.734Z,68.50
2023-02-14T09:10:34.401Z,68.40
2023-02-14T09:13:04.218Z,68.40
2023-02-14T09:15:33.776Z,68.40
2023-02-14T09:18:05.723Z,68.40
2023-02-14T09:20:35.864Z,68.40
2023-02-14T09:23:05.596Z,68.20
2023-02-14T09:25:35.752Z,68.10
2023-02-14T09:28:03.465Z,68.00
2023-02-14T09:30:30.853Z,68.00
2023-02-14T09:32:58.255Z,68.10
2023-02-14T09:35:25.511Z,68.00
2023-02-14T09:38:11.573Z,67.90
2023-02-14T09:40:38.926Z,67.70
2023-02-14T09:43:30.756Z,67.60
2023-02-14T09:46:02.454Z,67.50
2023-02-14T09:48:36.621Z,67.50
2023-02-14T09:51:17.732Z,67.60
2023-02-14T09:53:49.668Z,67.40
2023-02-14T09:56:25.408Z,67.40
2023-02-14T09:59:01.614Z,67.40
2023-02-14T10:01:34.478Z,67.20
2023-02-14T10:04:27.410Z,67.20
2023-02-14T10:07:01.016Z,67.30
2023-02-14T10:10:05.838Z,67.20
2023-02-14T10:13:02.109Z,67.00
2023-02-14T10:15:34.754Z,67.20
2023-02-14T10:18:05.567Z,67.40
2023-02-14T10:20:37.748Z,67.40
2023-02-14T10:23:09.473Z,67.90
2023-02-14T10:25:52.789Z,67.40
2023-02-14T10:28:30.654Z,67.40
2023-02-14T10:31:04.671Z,67.50
2023-02-14T10:33:40.314Z,67.70
2023-02-14T10:36:29.990Z,67.70
2023-02-14T10:39:07.034Z,67.80
2023-02-14T10:41:49.318Z,67.80
2023-02-14T10:44:51.520Z,67.70
2023-02-14T10:47:25.030Z,67.80
2023-02-14T10:49:59.771Z,67.90
2023-02-14T10:52:53.274Z,67.70
2023-02-14T10:55:33.071Z,67.70
2023-02-14T10:58:38.745Z,67.60
2023-02-14T11:01:12.302Z,67.70
2023-02-14T11:03:45.138Z,67.50
2023-02-14T11:06:12.729Z,67.60
2023-02-14T11:08:41.477Z,67.60
2023-02-14T11:11:37.581Z,67.60
2023-02-14T11:14:22.154Z,67.30
2023-02-14T11:16:52.100Z,67.30
2023-02-14T11:19:28.506Z,67.40
2023-02-14T11:22:10.300Z,67.20
2023-02-14T11:24:41.671Z,67.00
2023-02-14T11:27:11.765Z,67.20
2023-02-14T11:29:39.041Z,67.20
2023-02-14T11:32:22.775Z,67.30
2023-02-14T11:35:03.044Z,67.40
2023-02-14T11:37:37.127Z,67.40
2023-02-14T11:40:31.384Z,67.30
2023-02-14T11:43:14.575Z,67.40
2023-02-14T11:45:44.224Z,67.50
2023-02-14T11:48:37.366Z,67.40
2023-02-14T11:51:15.772Z,67.50
2023-02-14T11:53:47.608Z,67.50
2023-02-14T11:56:15.557Z,67.60
2023-02-14T11:58:45.473Z,67.70
2023-02-14T12:01:22.426Z,67.50
2023-02-14T12:03:51.063Z,67.60
2023-02-14T12:06:26.678Z,67.60
2023-02-14T12:09:12.799Z,67.70
2023-02-14T12:11:40.508Z,67.70
2023-02-14T12:14:21.708Z,67.60
2023-02-14T12:17:03.330Z,68.00
2023-02-14T12:19:55.376Z,67.40
2023-02-14T12:22:26.324Z,67.40
2023-02-14T12:25:16.787Z,67.50
2023-02-14T12:27:51.153Z,67.20
2023-02-14T12:30:19.778Z,67.20
2023-02-14T12:32:51.709Z,67.20
2023-02-14T12:35:34.996Z,67.30
2023-02-14T12:38:13.218Z,67.30
2023-02-14T12:41:20.041Z,67.50
2023-02-14T12:43:55.956Z,67.70
2023-02-14T12:46:31.944Z,67.50
2023-02-14T12:49:07.814Z,67.60
2023-02-14T12:51:52.450Z,67.60
2023-02-14T12:55:20.053Z,67.70
2023-02-14T12:57:59.871Z,67.60
2023-02-14T13:00:52.334Z,67.60
2023-02-14T13:03:40.422Z,67.50
2023-02-14T13:06:34.266Z,67.50
2023-02-14T13:09:01.636Z,67.70
2023-02-14T13:11:50.705Z,68.50
2023-02-14T13:14:20.948Z,67.90
2023-02-14T13:17:02.019Z,67.80
2023-02-14T13:20:39.069Z,67.90
2023-02-14T13:23:16.377Z,68.00
2023-02-14T13:25:54.501Z,67.80
2023-02-14T13:28:25.577Z,67.80
2023-02-14T13:30:54.882Z,67.80
2023-02-14T13:33:37.096Z,67.80
2023-02-14T13:36:10.242Z,67.90
2023-02-14T13:38:45.781Z,67.90
2023-02-14T13:41:15.245Z,67.90
2023-02-14T13:43:58.688Z,67.90
2023-02-14T13:46:32.088Z,68.00
2023-02-14T13:49:07.521Z,67.90
2023-02-14T13:52:05.618Z,67.80
2023-02-14T13:54:32.877Z,67.90
2023-02-14T13:57:36.807Z,67.90
2023-02-14T14:00:19.503Z,67.90
2023-02-14T14:02:54.648Z,67.80
2023-02-14T14:05:32.494Z,67.70
2023-02-14T14:08:18.256Z,67.60
2023-02-14T14:10:54.537Z,67.70
2023-02-14T14:13:40.325Z,67.70
2023-02-14T14:16:28.837Z,67.90
2023-02-14T14:19:17.143Z,67.90
2023-02-14T14:22:00.845Z,67.80
2023-02-14T14:24:33.465Z,67.90
2023-02-14T14:27:22.793Z,67.90
2023-02-14T14:29:58.563Z,67.80
2023-02-14T14:32:32.167Z,67.90
2023-02-14T14:35:04.573Z,67.90
2023-02-14T14:37:38.654Z,67.90
2023-02-14T14:40:08.404Z,67.90
2023-02-14T14:42:40.208Z,67.90
2023-02-14T14:45:09.559Z,67.90
2023-02-14T14:47:44.353Z,68.00
2023-02-14T14:50:20.047Z,67.70
2023-02-14T14:52:50.005Z,67.80
2023-02-14T14:55:21.766Z,67.80
2023-02-14T14:57:53.490Z,67.80
2023-02-14T15:00:30.484Z,67.90
2023-02-14T15:03:01.296Z,67.70
2023-02-14T15:05:32.730Z,67.70
2023-02-14T15:08:16.564Z,67.70
2023-02-14T15:10:47.396Z,67.90
2023-02-14T15:13:35.967Z,68.00
2023-02-14T15:16:05.867Z,68.10
2023-02-14T15:18:36.182Z,68.10
2023-02-14T15:21:07.916Z,68.10
2023-02-14T15:23:37.857Z,68.00
2023-02-14T15:26:05.347Z,68.10
2023-02-14T15:28:35.462Z,68.10
2023-02-14T15:31:07.775Z,68.10
2023-02-14T15:33:36.087Z,68.00
2023-02-14T15:36:08.078Z,67.90
2023-02-14T15:38:41.000Z,67.90
2023-02-14T15:41:16.686Z,67.80
2023-02-14T15:43:44.243Z,67.70
2023-02-14T15:46:36.199Z,67.60
2023-02-14T15:49:12.505Z,67.60
2023-02-14T15:51:41.341Z,67.60
2023-02-14T15:54:21.657Z,67.50
2023-02-14T15:56:54.461Z,67.40
2023-02-14T15:59:29.743Z,67.30
2023-02-14T16:01:58.432Z,67.30
2023-02-14T16:04:33.863Z,67.30
2023-02-14T16:07:26.623Z,67.20
2023-02-14T16:10:28.990Z,67.40
2023-02-14T16:12:59.241Z,67.50
2023-02-14T16:15:32.548Z,67.50
2023-02-14T16:18:06.888Z,67.50
2023-02-14T16:20:47.102Z,67.50
2023-02-14T16:23:24.425Z,67.60
2023-02-14T16:25:54.754Z,67.70
2023-02-14T16:28:22.342Z,67.70
2023-02-14T16:30:55.719Z,67.70
2023-02-14T16:33:26.868Z,67.80
2023-02-14T16:35:55.011Z,67.80
2023-02-14T16:38:22.646Z,67.90
2023-02-14T16:40:54.947Z,68.00
2023-02-14T16:43:22.266Z,68.10
2023-02-14T16:45:49.718Z,68.10
2023-02-14T16:48:17.071Z,68.20
2023-02-14T16:50:46.324Z,68.20
2023-02-14T16:53:28.864Z,68.30
2023-02-14T16:55:57.649Z,68.50
2023-02-14T16:58:31.588Z,68.40
2023-02-14T17:01:01.583Z,68.30
2023-02-14T17:03:31.385Z,68.30
2023-02-14T17:06:02.996Z,68.30
2023-02-14T17:08:31.104Z,68.20
2023-02-14T17:11:02.078Z,68.20
2023-02-14T17:13:39.249Z,68.30
2023-02-14T17:16:11.092Z,68.40
2023-02-14T17:18:39.465Z,68.40
2023-02-14T17:21:06.818Z,68.30
2023-02-14T17:23:36.412Z,68.30
2023-02-14T17:26:03.935Z,68.40
2023-02-14T17:28:31.182Z,68.40
2023-02-14T17:31:00.706Z,68.40
2023-02-14T17:33:30.421Z,68.50
2023-02-14T17:36:10.130Z,68.60
2023-02-14T17:38:43.429Z,68.40
2023-02-14T17:41:22.388Z,68.30
2023-02-14T17:43:50.766Z,68.30
2023-02-14T17:46:18.708Z,68.30
2023-02-14T17:48:49.160Z,68.30
2023-02-14T17:51:18.051Z,68.30
2023-02-14T17:53:45.370Z,68.30
2023-02-14T17:56:23.803Z,68.20
2023-02-14T17:58:55.035Z,68.10
2023-02-14T18:01:27.991Z,68.10
2023-02-14T18:03:57.962Z,68.20
2023-02-14T18:06:26.694Z,68.40
2023-02-14T18:08:59.295Z,68.50
2023-02-14T18:11:27.998Z,68.40
2023-02-14T18:13:59.684Z,68.40
2023-02-14T18:16:27.017Z,68.40
2023-02-14T18:18:55.056Z,68.40
2023-02-14T18:21:24.527Z,68.40
2023-02-14T18:23:52.066Z,68.40
2023-02-14T18:26:19.804Z,68.40
2023-02-14T18:28:47.238Z,68.50
2023-02-14T18:31:18.028Z,68.50
2023-02-14T18:33:46.821Z,68.70
2023-02-14T18:36:21.311Z,68.60
2023-02-14T18:38:49.176Z,68.60
2023-02-14T18:41:19.014Z,68.60
2023-02-14T18:43:49.162Z,68.40
2023-02-14T18:46:22.605Z,68.30
2023-02-14T18:48:50.866Z,68.10
2023-02-14T18:51:21.474Z,68.10
2023-02-14T18:53:52.273Z,68.20
2023-02-14T18:56:22.107Z,68.30
2023-02-14T18:58:52.858Z,68.40
2023-02-14T19:01:25.105Z,68.40
2023-02-14T19:03:54.893Z,68.40
2023-02-14T19:06:24.964Z,68.40
2023-02-14T19:08:52.368Z,68.50
2023-02-14T19:11:26.156Z,68.40
2023-02-14T19:13:59.509Z,68.40
2023-02-14T19:16:34.160Z,68.20
2023-02-14T19:19:03.891Z,68.40
2023-02-14T19:21:35.026Z,68.40
2023-02-14T19:24:03.978Z,68.30
2023-02-14T19:26:37.653Z,68.30
2023-02-14T19:29:08.365Z,68.20
2023-02-14T19:31:38.167Z,68.20
2023-02-14T19:34:06.663Z,68.20
2023-02-14T19:36:37.534Z,68.20
2023-02-14T19:39:05.542Z,68.40
2023-02-14T19:41:35.237Z,68.30
2023-02-14T19:44:04.977Z,68.20
2023-02-14T19:46:33.171Z,68.30
2023-02-14T19:49:01.797Z,68.40
2023-02-14T19:51:31.559Z,68.40
2023-02-14T19:54:03.112Z,68.40
2023-02-14T19:56:36.442Z,68.40
2023-02-14T19:59:09.051Z,68.10
2023-02-14T20:01:39.630Z,68.10
2023-02-14T20:04:12.129Z,68.10
2023-02-14T20:06:42.475Z,68.10
2023-02-14T20:09:09.863Z,68.10
2023-02-14T20:11:51.515Z,68.10
2023-02-14T20:14:22.351Z,68.10
2023-02-14T20:16:50.428Z,68.10
2023-02-14T20:19:21.306Z,68.70
2023-02-14T20:21:50.555Z,68.00
2023-02-14T20:24:21.650Z,67.90
2023-02-14T20:26:52.090Z,68.00
2023-02-14T20:29:20.432Z,68.00
2023-02-14T20:31:53.125Z,67.90
2023-02-14T20:34:20.949Z,67.70
2023-02-14T20:36:55.645Z,67.60
2023-02-14T20:39:29.172Z,67.60
2023-02-14T20:41:56.686Z,67.50
2023-02-14T20:44:26.478Z,67.50
2023-02-14T20:46:57.283Z,67.60
2023-02-14T20:49:28.894Z,67.50
2023-02-14T20:51:56.873Z,67.50
2023-02-14T20:54:26.702Z,67.50
2023-02-14T20:56:54.539Z,67.40
2023-02-14T20:59:27.103Z,67.40
2023-02-14T21:01:55.945Z,67.50
2023-02-14T21:04:25.784Z,67.50
2023-02-14T21:06:57.652Z,67.50
2023-02-14T21:09:28.290Z,67.40
2023-02-14T21:11:55.680Z,67.30
2023-02-14T21:14:23.007Z,67.30
2023-02-14T21:16:52.551Z,67.40
2023-02-14T21:19:19.847Z,67.50
2023-02-14T21:21:52.231Z,67.50
2023-02-14T21:24:21.722Z,67.60
2023-02-14T21:26:49.086Z,67.60
2023-02-14T21:29:18.759Z,67.60
2023-02-14T21:31:46.070Z,67.40
2023-02-14T21:34:15.579Z,67.30
2023-02-14T21:36:45.378Z,67.40
2023-02-14T21:39:13.102Z,67.40
2023-02-14T21:41:45.094Z,67.40
2023-02-14T21:44:34.853Z,67.40
2023-02-14T21:47:02.197Z,67.50
2023-02-14T21:49:48.019Z,67.40
2023-02-14T21:52:15.324Z,67.50
2023-02-14T21:54:43.049Z,67.40
2023-02-14T21:57:12.707Z,67.40
2023-02-14T21:59:40.381Z,67.40
2023-02-14T22:02:08.162Z,67.40
2023-02-14T22:04:38.164Z,67.40
2023-02-14T22:07:05.697Z,67.30
2023-02-14T22:09:33.080Z,67.30
2023-02-14T22:12:00.460Z,67.30
2023-02-14T22:14:30.137Z,67.30
2023-02-14T22:16:59.659Z,67.40
2023-02-14T22:19:29.303Z,67.40
2023-02-14T22:22:01.402Z,67.40
2023-02-14T22:24:28.800Z,67.40
2023-02-14T22:26:56.054Z,67.50
2023-02-14T22:29:23.332Z,67.60
2023-02-14T22:31:50.808Z,67.50
2023-02-14T22:34:20.510Z,67.60
2023-02-14T22:36:51.201Z,67.60
2023-02-14T22:39:18.689Z,67.70
2023-02-14T22:41:46.615Z,67.70
2023-02-14T22:44:14.183Z,67.50
2023-02-14T22:46:42.095Z,67.50
2023-02-14T22:49:12.398Z,67.40
2023-02-14T22:51:43.149Z,67.40
2023-02-14T22:54:15.990Z,67.30
2023-02-14T22:56:45.706Z,67.20
2023-02-14T22:59:21.504Z,67.20
2023-02-14T23:01:50.124Z,67.20
2023-02-14T23:04:19.340Z,67.10
2023-02-14T23:06:52.553Z,67.10
2023-02-14T23:09:20.367Z,67.10
2023-02-14T23:11:48.061Z,67.10
2023-02-14T23:14:35.515Z,67.10
2023-02-14T23:17:16.056Z,67.10
2023-02-14T23:20:03.243Z,67.10
2023-02-14T23:22:37.504Z,67.20
2023-02-14T23:25:08.272Z,67.10
2023-02-14T23:27:38.683Z,67.20
2023-02-14T23:30:08.066Z,67.20
2023-02-14T23:32:35.768Z,67.20
2023-02-14T23:35:03.216Z,67.20
2023-02-14T23:37:30.640Z,67.20
2023-02-14T23:40:00.171Z,67.20
2023-02-14T23:42:28.238Z,67.20
2023-02-14T23:45:15.543Z,67.10
2023-02-14T23:47:45.042Z,67.20
2023-02-14T23:50:12.577Z,67.20
2023-02-14T23:52:42.388Z,67.40
2023-02-14T23:55:09.760Z,67.40
2023-02-14T23:57:37.602Z,67.50
